Ana Sayfa
METAR-TAF:

METAR-TAF

Havaalanları :

Hutchinson County Airport

Borger, Teksas, Amerika Birleşik Devletleri

Enlem: 35-41-42N, Boylam: 101-23-42W, yükseklik: 931 m

Güncel hava durumu gözlemi

Rapor saat 15:51 UTC de 36 dakika önce yapıldı.
Sakin rüzgar
Sıcaklık 26°C
Nem 37%
Basınç 1012 hPa
Görüş mesafesi: 16.1 km
Açık gökyüzü

METAR: KBGD 181551Z AUTO 00000KT 10SM CLR 26/10 A2988 RMK AO2 SLP074 T02610100

Saat: 11:27 (16:27 UTC)


TAF: eksik

4.000'den fazla havaalanı için hava durumu gözlemleri ve tahminleri (METAR ve TAF raporları).

Kullanılabilir istasyonlar harita üzerinde sarı ve kırmızı noktalarla gösterilir.

İstasyonun adını görmek için fareyi noktanın üzerinde gezdirin.

Sonrasında hava gözlem ve tahminlerini görmek için tıklayın.

Haritayı değiştirmek için: yaklaştırmak için siyah artı işaretli yeşil düğmeye ve uzaklaştırmak için de eksi işaretli düğmeye hızla tıklayın; bitişik haritalar için yeşil okları kullanın.


METAR-TAF: